sensor_id;sensor_type;location;lat;lon;timestamp;P1;durP1;ratioP1;P2;durP2;ratioP2
75687;SDS011;64300;45.034;38.910;2022-12-18T00:00:47;7.03;;;3.05;;
75687;SDS011;64300;45.034;38.910;2022-12-18T00:03:14;6.63;;;3.47;;
75687;SDS011;64300;45.034;38.910;2022-12-18T00:05:47;5.15;;;2.47;;
75687;SDS011;64300;45.034;38.910;2022-12-18T00:08:14;4.93;;;2.60;;
75687;SDS011;64300;45.034;38.910;2022-12-18T00:10:40;4.68;;;2.47;;
75687;SDS011;64300;45.034;38.910;2022-12-18T00:13:06;6.65;;;2.50;;
75687;SDS011;64300;45.034;38.910;2022-12-18T00:15:33;6.90;;;2.40;;
75687;SDS011;64300;45.034;38.910;2022-12-18T00:18:00;5.82;;;2.72;;
75687;SDS011;64300;45.034;38.910;2022-12-18T00:20:26;6.82;;;2.70;;
75687;SDS011;64300;45.034;38.910;2022-12-18T00:22:53;5.25;;;2.50;;
75687;SDS011;64300;45.034;38.910;2022-12-18T00:25:20;7.80;;;2.40;;
75687;SDS011;64300;45.034;38.910;2022-12-18T00:27:46;6.25;;;2.35;;
75687;SDS011;64300;45.034;38.910;2022-12-18T00:30:13;5.85;;;2.70;;
75687;SDS011;64300;45.034;38.910;2022-12-18T00:32:39;7.30;;;2.63;;
75687;SDS011;64300;45.034;38.910;2022-12-18T00:35:05;5.97;;;2.55;;
75687;SDS011;64300;45.034;38.910;2022-12-18T00:37:35;5.22;;;2.55;;
75687;SDS011;64300;45.034;38.910;2022-12-18T00:40:01;6.40;;;3.17;;
75687;SDS011;64300;45.034;38.910;2022-12-18T00:42:27;5.75;;;2.70;;
75687;SDS011;64300;45.034;38.910;2022-12-18T00:45:12;8.15;;;3.40;;
75687;SDS011;64300;45.034;38.910;2022-12-18T00:47:38;6.13;;;3.13;;
75687;SDS011;64300;45.034;38.910;2022-12-18T00:50:04;9.32;;;3.00;;
75687;SDS011;64300;45.034;38.910;2022-12-18T00:52:30;7.63;;;3.38;;
75687;SDS011;64300;45.034;38.910;2022-12-18T00:54:56;6.78;;;3.60;;
75687;SDS011;64300;45.034;38.910;2022-12-18T00:57:22;9.00;;;3.58;;
75687;SDS011;64300;45.034;38.910;2022-12-18T00:59:48;7.22;;;3.38;;
75687;SDS011;64300;45.034;38.910;2022-12-18T01:02:13;6.50;;;3.22;;
75687;SDS011;64300;45.034;38.910;2022-12-18T01:04:39;6.47;;;2.92;;
75687;SDS011;64300;45.034;38.910;2022-12-18T01:09:33;8.40;;;2.78;;
75687;SDS011;64300;45.034;38.910;2022-12-18T01:11:59;5.85;;;2.67;;
75687;SDS011;64300;45.034;38.910;2022-12-18T01:14:26;4.85;;;2.42;;
75687;SDS011;64300;45.034;38.910;2022-12-18T01:16:52;6.85;;;2.72;;
75687;SDS011;64300;45.034;38.910;2022-12-18T01:19:18;6.80;;;2.65;;
75687;SDS011;64300;45.034;38.910;2022-12-18T01:21:45;8.07;;;2.97;;
75687;SDS011;64300;45.034;38.910;2022-12-18T01:24:12;7.25;;;3.10;;
75687;SDS011;64300;45.034;38.910;2022-12-18T01:26:38;6.82;;;2.70;;
75687;SDS011;64300;45.034;38.910;2022-12-18T01:29:04;6.28;;;2.53;;
75687;SDS011;64300;45.034;38.910;2022-12-18T01:31:30;5.53;;;2.55;;
75687;SDS011;64300;45.034;38.910;2022-12-18T01:34:01;6.78;;;2.70;;
75687;SDS011;64300;45.034;38.910;2022-12-18T01:36:28;7.47;;;2.80;;
75687;SDS011;64300;45.034;38.910;2022-12-18T01:38:56;8.18;;;3.22;;
75687;SDS011;64300;45.034;38.910;2022-12-18T01:41:26;5.65;;;2.65;;
75687;SDS011;64300;45.034;38.910;2022-12-18T01:47:26;6.90;;;2.75;;
75687;SDS011;64300;45.034;38.910;2022-12-18T01:49:57;7.53;;;3.13;;
75687;SDS011;64300;45.034;38.910;2022-12-18T01:52:26;6.35;;;2.90;;
75687;SDS011;64300;45.034;38.910;2022-12-18T01:54:54;5.55;;;2.83;;
75687;SDS011;64300;45.034;38.910;2022-12-18T01:57:21;7.03;;;3.08;;
75687;SDS011;64300;45.034;38.910;2022-12-18T01:59:49;5.50;;;2.75;;
75687;SDS011;64300;45.034;38.910;2022-12-18T02:02:18;6.10;;;2.83;;
75687;SDS011;64300;45.034;38.910;2022-12-18T02:04:48;6.30;;;2.90;;
75687;SDS011;64300;45.034;38.910;2022-12-18T02:10:20;5.55;;;2.85;;
75687;SDS011;64300;45.034;38.910;2022-12-18T02:17:52;5.82;;;2.42;;
75687;SDS011;64300;45.034;38.910;2022-12-18T02:20:31;4.55;;;2.05;;
75687;SDS011;64300;45.034;38.910;2022-12-18T02:23:06;6.70;;;2.45;;
75687;SDS011;64300;45.034;38.910;2022-12-18T02:28:58;4.95;;;2.28;;
75687;SDS011;64300;45.034;38.910;2022-12-18T02:31:36;4.93;;;2.28;;
75687;SDS011;64300;45.034;38.910;2022-12-18T02:34:08;7.57;;;2.28;;
75687;SDS011;64300;45.034;38.910;2022-12-18T02:36:38;5.35;;;2.67;;
75687;SDS011;64300;45.034;38.910;2022-12-18T02:39:07;7.38;;;2.60;;
75687;SDS011;64300;45.034;38.910;2022-12-18T02:41:39;8.07;;;2.60;;
75687;SDS011;64300;45.034;38.910;2022-12-18T02:44:08;6.65;;;2.47;;
75687;SDS011;64300;45.034;38.910;2022-12-18T02:46:37;8.15;;;2.47;;
75687;SDS011;64300;45.034;38.910;2022-12-18T02:57:50;5.28;;;2.45;;
75687;SDS011;64300;45.034;38.910;2022-12-18T03:08:27;5.70;;;2.38;;
75687;SDS011;64300;45.034;38.910;2022-12-18T03:11:03;7.00;;;2.42;;
75687;SDS011;64300;45.034;38.910;2022-12-18T03:13:55;5.35;;;1.90;;
75687;SDS011;64300;45.034;38.910;2022-12-18T03:16:26;3.28;;;1.73;;
75687;SDS011;64300;45.034;38.910;2022-12-18T03:18:59;4.93;;;2.22;;
75687;SDS011;64300;45.034;38.910;2022-12-18T03:21:39;4.15;;;2.10;;
75687;SDS011;64300;45.034;38.910;2022-12-18T03:26:39;6.75;;;2.28;;
75687;SDS011;64300;45.034;38.910;2022-12-18T03:29:28;6.38;;;2.40;;
75687;SDS011;64300;45.034;38.910;2022-12-18T03:32:21;8.57;;;2.47;;
75687;SDS011;64300;45.034;38.910;2022-12-18T03:34:53;5.40;;;2.58;;
75687;SDS011;64300;45.034;38.910;2022-12-18T03:37:28;6.05;;;2.88;;
75687;SDS011;64300;45.034;38.910;2022-12-18T03:39:53;8.63;;;2.95;;
75687;SDS011;64300;45.034;38.910;2022-12-18T03:50:54;7.53;;;2.33;;
75687;SDS011;64300;45.034;38.910;2022-12-18T03:56:22;6.55;;;2.40;;
75687;SDS011;64300;45.034;38.910;2022-12-18T03:58:52;7.95;;;2.47;;
75687;SDS011;64300;45.034;38.910;2022-12-18T04:01:24;5.85;;;2.35;;
75687;SDS011;64300;45.034;38.910;2022-12-18T04:03:57;6.35;;;2.75;;
75687;SDS011;64300;45.034;38.910;2022-12-18T04:06:28;9.02;;;2.45;;
75687;SDS011;64300;45.034;38.910;2022-12-18T04:08:56;7.97;;;2.47;;
75687;SDS011;64300;45.034;38.910;2022-12-18T04:11:25;5.50;;;2.58;;
75687;SDS011;64300;45.034;38.910;2022-12-18T04:13:55;6.88;;;3.00;;
75687;SDS011;64300;45.034;38.910;2022-12-18T04:16:23;7.78;;;2.78;;
75687;SDS011;64300;45.034;38.910;2022-12-18T04:18:53;5.68;;;2.53;;
75687;SDS011;64300;45.034;38.910;2022-12-18T04:21:20;9.98;;;2.70;;
75687;SDS011;64300;45.034;38.910;2022-12-18T04:23:48;11.00;;;3.03;;
75687;SDS011;64300;45.034;38.910;2022-12-18T04:26:17;22.52;;;4.07;;
75687;SDS011;64300;45.034;38.910;2022-12-18T04:29:00;16.40;;;2.97;;
75687;SDS011;64300;45.034;38.910;2022-12-18T04:31:27;15.73;;;2.90;;
75687;SDS011;64300;45.034;38.910;2022-12-18T04:33:53;11.55;;;3.00;;
75687;SDS011;64300;45.034;38.910;2022-12-18T04:36:19;7.18;;;3.13;;
75687;SDS011;64300;45.034;38.910;2022-12-18T04:38:46;9.88;;;2.72;;
75687;SDS011;64300;45.034;38.910;2022-12-18T04:41:14;7.38;;;3.00;;
75687;SDS011;64300;45.034;38.910;2022-12-18T04:43:45;5.50;;;2.70;;
75687;SDS011;64300;45.034;38.910;2022-12-18T04:46:11;6.70;;;2.63;;
75687;SDS011;64300;45.034;38.910;2022-12-18T04:48:37;5.40;;;2.80;;
75687;SDS011;64300;45.034;38.910;2022-12-18T04:51:03;8.18;;;2.70;;
75687;SDS011;64300;45.034;38.910;2022-12-18T04:53:30;4.57;;;2.70;;
75687;SDS011;64300;45.034;38.910;2022-12-18T04:56:30;6.70;;;2.92;;
75687;SDS011;64300;45.034;38.910;2022-12-18T04:58:49;9.80;;;3.40;;
75687;SDS011;64300;45.034;38.910;2022-12-18T05:01:15;6.05;;;2.95;;
75687;SDS011;64300;45.034;38.910;2022-12-18T05:03:45;9.57;;;3.10;;
75687;SDS011;64300;45.034;38.910;2022-12-18T05:06:11;4.50;;;2.50;;
75687;SDS011;64300;45.034;38.910;2022-12-18T05:08:37;6.75;;;3.20;;
75687;SDS011;64300;45.034;38.910;2022-12-18T05:13:31;16.23;;;5.13;;
75687;SDS011;64300;45.034;38.910;2022-12-18T05:16:00;9.60;;;3.40;;
75687;SDS011;64300;45.034;38.910;2022-12-18T05:18:26;7.28;;;3.63;;
75687;SDS011;64300;45.034;38.910;2022-12-18T05:20:52;11.30;;;3.75;;
75687;SDS011;64300;45.034;38.910;2022-12-18T05:23:19;11.02;;;3.95;;
75687;SDS011;64300;45.034;38.910;2022-12-18T05:25:50;6.18;;;2.97;;
75687;SDS011;64300;45.034;38.910;2022-12-18T05:28:25;12.38;;;3.20;;
75687;SDS011;64300;45.034;38.910;2022-12-18T05:30:54;6.10;;;3.17;;
75687;SDS011;64300;45.034;38.910;2022-12-18T05:33:22;9.20;;;3.70;;
75687;SDS011;64300;45.034;38.910;2022-12-18T05:35:53;7.50;;;3.88;;
75687;SDS011;64300;45.034;38.910;2022-12-18T05:38:21;8.25;;;3.08;;
75687;SDS011;64300;45.034;38.910;2022-12-18T05:40:49;6.13;;;2.90;;
75687;SDS011;64300;45.034;38.910;2022-12-18T05:43:16;6.10;;;3.28;;
75687;SDS011;64300;45.034;38.910;2022-12-18T05:45:43;6.28;;;2.38;;
75687;SDS011;64300;45.034;38.910;2022-12-18T05:48:12;6.93;;;2.72;;
75687;SDS011;64300;45.034;38.910;2022-12-18T05:50:38;7.57;;;2.80;;
75687;SDS011;64300;45.034;38.910;2022-12-18T05:53:06;6.93;;;2.95;;
75687;SDS011;64300;45.034;38.910;2022-12-18T05:55:33;7.50;;;3.40;;
75687;SDS011;64300;45.034;38.910;2022-12-18T05:58:00;5.88;;;2.65;;
75687;SDS011;64300;45.034;38.910;2022-12-18T06:00:27;5.15;;;2.75;;
75687;SDS011;64300;45.034;38.910;2022-12-18T06:02:53;5.25;;;2.80;;
75687;SDS011;64300;45.034;38.910;2022-12-18T06:05:19;5.55;;;2.80;;
75687;SDS011;64300;45.034;38.910;2022-12-18T06:07:46;4.82;;;2.60;;
75687;SDS011;64300;45.034;38.910;2022-12-18T06:10:13;15.15;;;3.38;;
75687;SDS011;64300;45.034;38.910;2022-12-18T06:12:39;6.43;;;3.10;;
75687;SDS011;64300;45.034;38.910;2022-12-18T06:15:05;6.65;;;3.15;;
75687;SDS011;64300;45.034;38.910;2022-12-18T06:17:31;8.77;;;3.63;;
75687;SDS011;64300;45.034;38.910;2022-12-18T06:19:58;18.60;;;7.35;;
75687;SDS011;64300;45.034;38.910;2022-12-18T06:22:24;8.15;;;3.17;;
75687;SDS011;64300;45.034;38.910;2022-12-18T06:24:51;14.48;;;7.22;;
75687;SDS011;64300;45.034;38.910;2022-12-18T06:27:17;9.43;;;3.20;;
75687;SDS011;64300;45.034;38.910;2022-12-18T06:29:43;5.78;;;2.25;;
75687;SDS011;64300;45.034;38.910;2022-12-18T06:32:09;5.10;;;2.10;;
75687;SDS011;64300;45.034;38.910;2022-12-18T06:34:36;5.50;;;2.40;;
75687;SDS011;64300;45.034;38.910;2022-12-18T06:37:07;5.15;;;2.60;;
75687;SDS011;64300;45.034;38.910;2022-12-18T06:39:33;8.60;;;2.28;;
75687;SDS011;64300;45.034;38.910;2022-12-18T06:41:59;5.65;;;2.22;;
75687;SDS011;64300;45.034;38.910;2022-12-18T06:44:25;6.63;;;2.67;;
75687;SDS011;64300;45.034;38.910;2022-12-18T06:46:51;4.90;;;2.10;;
75687;SDS011;64300;45.034;38.910;2022-12-18T06:49:17;6.18;;;2.35;;
75687;SDS011;64300;45.034;38.910;2022-12-18T06:51:43;7.15;;;2.25;;
75687;SDS011;64300;45.034;38.910;2022-12-18T06:54:09;8.40;;;2.78;;
75687;SDS011;64300;45.034;38.910;2022-12-18T06:56:35;9.05;;;4.57;;
75687;SDS011;64300;45.034;38.910;2022-12-18T06:59:01;7.28;;;3.05;;
75687;SDS011;64300;45.034;38.910;2022-12-18T07:01:27;11.13;;;4.70;;
75687;SDS011;64300;45.034;38.910;2022-12-18T07:03:55;8.27;;;3.00;;
75687;SDS011;64300;45.034;38.910;2022-12-18T07:06:23;4.88;;;2.67;;
75687;SDS011;64300;45.034;38.910;2022-12-18T07:08:50;7.72;;;2.55;;
75687;SDS011;64300;45.034;38.910;2022-12-18T07:11:17;10.05;;;2.95;;
75687;SDS011;64300;45.034;38.910;2022-12-18T07:13:44;5.38;;;2.40;;
75687;SDS011;64300;45.034;38.910;2022-12-18T07:16:12;5.03;;;2.22;;
75687;SDS011;64300;45.034;38.910;2022-12-18T07:18:40;6.55;;;2.00;;
75687;SDS011;64300;45.034;38.910;2022-12-18T07:21:07;5.40;;;2.03;;
75687;SDS011;64300;45.034;38.910;2022-12-18T07:23:35;7.28;;;1.85;;
75687;SDS011;64300;45.034;38.910;2022-12-18T07:26:06;6.47;;;2.20;;
75687;SDS011;64300;45.034;38.910;2022-12-18T07:28:34;6.22;;;1.92;;
75687;SDS011;64300;45.034;38.910;2022-12-18T07:31:05;4.35;;;2.15;;
75687;SDS011;64300;45.034;38.910;2022-12-18T07:33:51;7.28;;;2.50;;
75687;SDS011;64300;45.034;38.910;2022-12-18T07:36:18;6.78;;;3.53;;
75687;SDS011;64300;45.034;38.910;2022-12-18T07:38:46;7.65;;;2.33;;
75687;SDS011;64300;45.034;38.910;2022-12-18T07:41:18;4.90;;;2.20;;
75687;SDS011;64300;45.034;38.910;2022-12-18T07:43:44;5.50;;;1.90;;
75687;SDS011;64300;45.034;38.910;2022-12-18T07:46:11;5.78;;;1.80;;
75687;SDS011;64300;45.034;38.910;2022-12-18T07:48:45;4.40;;;1.77;;
75687;SDS011;64300;45.034;38.910;2022-12-18T07:51:11;5.53;;;1.77;;
75687;SDS011;64300;45.034;38.910;2022-12-18T07:53:39;4.32;;;1.50;;
75687;SDS011;64300;45.034;38.910;2022-12-18T07:56:06;3.38;;;1.40;;
75687;SDS011;64300;45.034;38.910;2022-12-18T07:58:35;4.55;;;1.50;;
75687;SDS011;64300;45.034;38.910;2022-12-18T08:01:05;3.67;;;1.52;;
75687;SDS011;64300;45.034;38.910;2022-12-18T08:03:33;6.32;;;1.63;;
75687;SDS011;64300;45.034;38.910;2022-12-18T08:06:02;4.78;;;1.67;;
75687;SDS011;64300;45.034;38.910;2022-12-18T08:08:30;4.82;;;1.60;;
75687;SDS011;64300;45.034;38.910;2022-12-18T08:10:56;4.90;;;2.00;;
75687;SDS011;64300;45.034;38.910;2022-12-18T08:13:23;3.30;;;1.50;;
75687;SDS011;64300;45.034;38.910;2022-12-18T08:15:56;6.00;;;1.85;;
75687;SDS011;64300;45.034;38.910;2022-12-18T08:18:23;6.28;;;1.70;;
75687;SDS011;64300;45.034;38.910;2022-12-18T08:20:49;5.63;;;1.70;;
75687;SDS011;64300;45.034;38.910;2022-12-18T08:23:15;3.58;;;1.60;;
75687;SDS011;64300;45.034;38.910;2022-12-18T08:25:42;6.07;;;2.20;;
75687;SDS011;64300;45.034;38.910;2022-12-18T08:28:09;4.57;;;1.65;;
75687;SDS011;64300;45.034;38.910;2022-12-18T08:30:35;5.43;;;1.73;;
75687;SDS011;64300;45.034;38.910;2022-12-18T08:33:02;11.52;;;1.60;;
75687;SDS011;64300;45.034;38.910;2022-12-18T08:35:28;3.35;;;1.40;;
75687;SDS011;64300;45.034;38.910;2022-12-18T08:37:55;3.28;;;1.30;;
75687;SDS011;64300;45.034;38.910;2022-12-18T08:40:21;4.95;;;1.48;;
75687;SDS011;64300;45.034;38.910;2022-12-18T08:42:47;2.63;;;1.23;;
75687;SDS011;64300;45.034;38.910;2022-12-18T08:45:31;4.20;;;1.45;;
75687;SDS011;64300;45.034;38.910;2022-12-18T08:47:57;3.33;;;1.42;;
75687;SDS011;64300;45.034;38.910;2022-12-18T08:50:23;3.30;;;1.30;;
75687;SDS011;64300;45.034;38.910;2022-12-18T08:52:48;4.68;;;1.40;;
75687;SDS011;64300;45.034;38.910;2022-12-18T08:55:14;4.03;;;1.63;;
75687;SDS011;64300;45.034;38.910;2022-12-18T08:57:40;5.35;;;1.40;;
75687;SDS011;64300;45.034;38.910;2022-12-18T09:00:07;3.03;;;1.30;;
75687;SDS011;64300;45.034;38.910;2022-12-18T09:02:34;3.38;;;1.55;;
75687;SDS011;64300;45.034;38.910;2022-12-18T09:05:00;3.65;;;1.77;;
75687;SDS011;64300;45.034;38.910;2022-12-18T09:07:26;7.00;;;1.80;;
75687;SDS011;64300;45.034;38.910;2022-12-18T09:09:51;7.70;;;1.48;;
75687;SDS011;64300;45.034;38.910;2022-12-18T09:12:17;3.38;;;1.48;;
75687;SDS011;64300;45.034;38.910;2022-12-18T09:14:43;5.15;;;1.45;;
75687;SDS011;64300;45.034;38.910;2022-12-18T09:17:09;2.97;;;1.48;;
75687;SDS011;64300;45.034;38.910;2022-12-18T09:19:35;6.82;;;1.50;;
75687;SDS011;64300;45.034;38.910;2022-12-18T09:22:01;6.28;;;1.75;;
75687;SDS011;64300;45.034;38.910;2022-12-18T09:24:28;9.10;;;2.40;;
75687;SDS011;64300;45.034;38.910;2022-12-18T09:26:54;5.60;;;2.78;;
75687;SDS011;64300;45.034;38.910;2022-12-18T09:29:20;6.35;;;2.88;;
75687;SDS011;64300;45.034;38.910;2022-12-18T09:31:47;6.55;;;2.92;;
75687;SDS011;64300;45.034;38.910;2022-12-18T09:34:14;7.38;;;2.47;;
75687;SDS011;64300;45.034;38.910;2022-12-18T09:36:42;7.15;;;2.20;;
75687;SDS011;64300;45.034;38.910;2022-12-18T09:39:07;6.90;;;2.08;;
75687;SDS011;64300;45.034;38.910;2022-12-18T09:41:47;5.93;;;2.40;;
75687;SDS011;64300;45.034;38.910;2022-12-18T09:44:29;4.30;;;2.20;;
75687;SDS011;64300;45.034;38.910;2022-12-18T09:49:40;5.05;;;1.90;;
75687;SDS011;64300;45.034;38.910;2022-12-18T09:52:11;7.10;;;1.95;;
75687;SDS011;64300;45.034;38.910;2022-12-18T09:54:42;6.35;;;2.13;;
75687;SDS011;64300;45.034;38.910;2022-12-18T09:57:15;4.47;;;1.90;;
75687;SDS011;64300;45.034;38.910;2022-12-18T09:59:55;6.75;;;2.15;;
75687;SDS011;64300;45.034;38.910;2022-12-18T10:02:25;4.28;;;1.80;;
75687;SDS011;64300;45.034;38.910;2022-12-18T10:07:39;4.53;;;1.92;;
75687;SDS011;64300;45.034;38.910;2022-12-18T10:16:17;10.23;;;2.10;;
75687;SDS011;64300;45.034;38.910;2022-12-18T10:24:51;5.35;;;1.95;;
75687;SDS011;64300;45.034;38.910;2022-12-18T10:27:29;6.70;;;1.80;;
75687;SDS011;64300;45.034;38.910;2022-12-18T10:29:56;3.65;;;1.83;;
75687;SDS011;64300;45.034;38.910;2022-12-18T10:32:27;6.85;;;1.70;;
75687;SDS011;64300;45.034;38.910;2022-12-18T10:34:56;3.30;;;1.58;;
75687;SDS011;64300;45.034;38.910;2022-12-18T10:37:24;4.82;;;2.20;;
75687;SDS011;64300;45.034;38.910;2022-12-18T10:40:13;6.80;;;2.05;;
75687;SDS011;64300;45.034;38.910;2022-12-18T10:42:40;2.97;;;1.08;;
75687;SDS011;64300;45.034;38.910;2022-12-18T10:45:11;5.93;;;2.40;;
75687;SDS011;64300;45.034;38.910;2022-12-18T10:47:44;7.38;;;2.20;;
75687;SDS011;64300;45.034;38.910;2022-12-18T10:50:19;4.90;;;1.90;;
75687;SDS011;64300;45.034;38.910;2022-12-18T10:52:55;3.50;;;1.70;;
75687;SDS011;64300;45.034;38.910;2022-12-18T10:55:24;5.70;;;2.50;;
75687;SDS011;64300;45.034;38.910;2022-12-18T10:58:21;6.05;;;2.45;;
75687;SDS011;64300;45.034;38.910;2022-12-18T11:06:01;7.50;;;3.13;;
75687;SDS011;64300;45.034;38.910;2022-12-18T11:08:29;6.90;;;2.80;;
75687;SDS011;64300;45.034;38.910;2022-12-18T11:10:55;6.80;;;3.30;;
75687;SDS011;64300;45.034;38.910;2022-12-18T11:13:22;8.40;;;3.30;;
75687;SDS011;64300;45.034;38.910;2022-12-18T11:15:50;6.13;;;3.00;;
75687;SDS011;64300;45.034;38.910;2022-12-18T11:20:57;9.15;;;3.05;;
75687;SDS011;64300;45.034;38.910;2022-12-18T11:23:32;8.95;;;3.70;;
75687;SDS011;64300;45.034;38.910;2022-12-18T11:26:01;9.05;;;3.58;;
75687;SDS011;64300;45.034;38.910;2022-12-18T11:28:29;7.60;;;3.88;;
75687;SDS011;64300;45.034;38.910;2022-12-18T11:31:15;7.40;;;3.83;;
75687;SDS011;64300;45.034;38.910;2022-12-18T11:34:13;9.18;;;3.67;;
75687;SDS011;64300;45.034;38.910;2022-12-18T11:36:48;8.10;;;3.45;;
75687;SDS011;64300;45.034;38.910;2022-12-18T11:42:20;11.55;;;4.47;;
75687;SDS011;64300;45.034;38.910;2022-12-18T11:45:01;9.80;;;4.30;;
75687;SDS011;64300;45.034;38.910;2022-12-18T11:47:58;24.50;;;7.43;;
75687;SDS011;64300;45.034;38.910;2022-12-18T11:51:12;18.83;;;11.88;;
75687;SDS011;64300;45.034;38.910;2022-12-18T11:53:23;14.93;;;9.00;;
75687;SDS011;64300;45.034;38.910;2022-12-18T11:58:49;12.07;;;5.70;;
75687;SDS011;64300;45.034;38.910;2022-12-18T12:26:23;21.33;;;8.68;;
75687;SDS011;64300;45.034;38.910;2022-12-18T12:34:31;20.60;;;8.85;;
75687;SDS011;64300;45.034;38.910;2022-12-18T12:40:13;14.57;;;6.63;;
75687;SDS011;64300;45.034;38.910;2022-12-18T12:42:54;17.13;;;8.05;;
75687;SDS011;64300;45.034;38.910;2022-12-18T12:45:40;22.48;;;9.77;;
75687;SDS011;64300;45.034;38.910;2022-12-18T12:48:27;16.75;;;7.97;;
75687;SDS011;64300;45.034;38.910;2022-12-18T12:51:29;21.50;;;8.65;;
75687;SDS011;64300;45.034;38.910;2022-12-18T12:53:56;14.98;;;6.15;;
75687;SDS011;64300;45.034;38.910;2022-12-18T12:56:25;17.40;;;8.23;;
75687;SDS011;64300;45.034;38.910;2022-12-18T13:07:41;16.48;;;8.93;;
75687;SDS011;64300;45.034;38.910;2022-12-18T13:18:28;15.57;;;8.82;;
75687;SDS011;64300;45.034;38.910;2022-12-18T13:25:49;12.65;;;7.03;;
75687;SDS011;64300;45.034;38.910;2022-12-18T13:28:17;13.40;;;6.40;;
75687;SDS011;64300;45.034;38.910;2022-12-18T13:31:01;17.35;;;7.90;;
75687;SDS011;64300;45.034;38.910;2022-12-18T13:38:41;14.13;;;6.05;;
75687;SDS011;64300;45.034;38.910;2022-12-18T13:43:44;14.27;;;5.35;;
75687;SDS011;64300;45.034;38.910;2022-12-18T13:46:21;13.10;;;5.25;;
75687;SDS011;64300;45.034;38.910;2022-12-18T13:48:50;20.58;;;9.07;;
75687;SDS011;64300;45.034;38.910;2022-12-18T13:51:19;13.20;;;5.65;;
75687;SDS011;64300;45.034;38.910;2022-12-18T13:53:48;27.58;;;9.30;;
75687;SDS011;64300;45.034;38.910;2022-12-18T13:56:22;31.67;;;11.00;;
75687;SDS011;64300;45.034;38.910;2022-12-18T14:01:54;24.92;;;9.52;;
75687;SDS011;64300;45.034;38.910;2022-12-18T14:04:28;27.55;;;10.38;;
75687;SDS011;64300;45.034;38.910;2022-12-18T14:07:06;32.03;;;11.55;;
75687;SDS011;64300;45.034;38.910;2022-12-18T14:09:46;26.50;;;10.32;;
75687;SDS011;64300;45.034;38.910;2022-12-18T14:12:26;26.88;;;10.00;;
75687;SDS011;64300;45.034;38.910;2022-12-18T14:17:45;21.98;;;7.85;;
75687;SDS011;64300;45.034;38.910;2022-12-18T14:20:14;12.50;;;4.72;;
75687;SDS011;64300;45.034;38.910;2022-12-18T14:22:43;24.75;;;9.00;;
75687;SDS011;64300;45.034;38.910;2022-12-18T14:27:43;19.48;;;7.45;;
75687;SDS011;64300;45.034;38.910;2022-12-18T14:33:05;29.90;;;7.70;;
75687;SDS011;64300;45.034;38.910;2022-12-18T14:35:58;16.33;;;6.22;;
75687;SDS011;64300;45.034;38.910;2022-12-18T14:41:02;11.68;;;4.55;;
75687;SDS011;64300;45.034;38.910;2022-12-18T14:43:34;18.75;;;7.65;;
75687;SDS011;64300;45.034;38.910;2022-12-18T14:46:06;20.75;;;4.47;;
75687;SDS011;64300;45.034;38.910;2022-12-18T14:48:53;19.10;;;6.85;;
75687;SDS011;64300;45.034;38.910;2022-12-18T14:51:24;26.17;;;8.13;;
75687;SDS011;64300;45.034;38.910;2022-12-18T14:53:55;15.82;;;4.93;;
75687;SDS011;64300;45.034;38.910;2022-12-18T14:59:03;18.38;;;5.82;;
75687;SDS011;64300;45.034;38.910;2022-12-18T15:01:37;13.77;;;5.53;;
75687;SDS011;64300;45.034;38.910;2022-12-18T15:04:25;13.10;;;4.63;;
75687;SDS011;64300;45.034;38.910;2022-12-18T15:09:39;8.82;;;3.22;;
75687;SDS011;64300;45.034;38.910;2022-12-18T15:32:17;9.18;;;4.05;;
75687;SDS011;64300;45.034;38.910;2022-12-18T15:34:49;10.80;;;4.43;;
75687;SDS011;64300;45.034;38.910;2022-12-18T15:39:41;14.80;;;4.85;;
75687;SDS011;64300;45.034;38.910;2022-12-18T15:42:10;11.80;;;4.18;;
75687;SDS011;64300;45.034;38.910;2022-12-18T15:44:55;7.53;;;3.65;;
75687;SDS011;64300;45.034;38.910;2022-12-18T15:49:46;8.88;;;3.55;;
75687;SDS011;64300;45.034;38.910;2022-12-18T15:52:12;9.75;;;3.55;;
75687;SDS011;64300;45.034;38.910;2022-12-18T15:54:39;17.02;;;5.07;;
75687;SDS011;64300;45.034;38.910;2022-12-18T15:57:23;8.60;;;2.97;;
75687;SDS011;64300;45.034;38.910;2022-12-18T16:02:20;9.77;;;5.05;;
75687;SDS011;64300;45.034;38.910;2022-12-18T16:04:51;15.05;;;6.63;;
75687;SDS011;64300;45.034;38.910;2022-12-18T16:07:17;8.90;;;4.47;;
75687;SDS011;64300;45.034;38.910;2022-12-18T16:09:43;12.73;;;5.15;;
75687;SDS011;64300;45.034;38.910;2022-12-18T16:12:17;13.65;;;4.72;;
75687;SDS011;64300;45.034;38.910;2022-12-18T16:14:46;9.32;;;4.65;;
75687;SDS011;64300;45.034;38.910;2022-12-18T16:17:12;5.93;;;3.35;;
75687;SDS011;64300;45.034;38.910;2022-12-18T16:19:42;6.32;;;3.28;;
75687;SDS011;64300;45.034;38.910;2022-12-18T16:22:15;10.07;;;4.50;;
75687;SDS011;64300;45.034;38.910;2022-12-18T16:24:51;11.30;;;5.00;;
75687;SDS011;64300;45.034;38.910;2022-12-18T16:27:18;12.70;;;5.57;;
75687;SDS011;64300;45.034;38.910;2022-12-18T16:29:44;11.38;;;5.78;;
75687;SDS011;64300;45.034;38.910;2022-12-18T16:34:42;10.93;;;4.50;;
75687;SDS011;64300;45.034;38.910;2022-12-18T16:37:09;8.70;;;4.70;;
75687;SDS011;64300;45.034;38.910;2022-12-18T16:39:37;15.20;;;6.82;;
75687;SDS011;64300;45.034;38.910;2022-12-18T16:42:05;12.40;;;5.32;;
75687;SDS011;64300;45.034;38.910;2022-12-18T16:45:11;7.82;;;4.50;;
75687;SDS011;64300;45.034;38.910;2022-12-18T16:47:39;11.88;;;5.28;;
75687;SDS011;64300;45.034;38.910;2022-12-18T16:50:05;10.15;;;3.97;;
75687;SDS011;64300;45.034;38.910;2022-12-18T16:52:32;10.00;;;4.68;;
75687;SDS011;64300;45.034;38.910;2022-12-18T16:54:59;11.23;;;6.18;;
75687;SDS011;64300;45.034;38.910;2022-12-18T16:57:25;17.63;;;6.75;;
75687;SDS011;64300;45.034;38.910;2022-12-18T16:59:51;8.25;;;3.75;;
75687;SDS011;64300;45.034;38.910;2022-12-18T17:02:18;8.85;;;5.40;;
75687;SDS011;64300;45.034;38.910;2022-12-18T17:04:46;11.45;;;5.60;;
75687;SDS011;64300;45.034;38.910;2022-12-18T17:09:41;16.52;;;5.18;;
75687;SDS011;64300;45.034;38.910;2022-12-18T17:12:07;8.68;;;4.60;;
75687;SDS011;64300;45.034;38.910;2022-12-18T17:14:34;12.63;;;5.75;;
75687;SDS011;64300;45.034;38.910;2022-12-18T17:17:00;17.23;;;7.85;;
75687;SDS011;64300;45.034;38.910;2022-12-18T17:19:26;9.70;;;5.35;;
75687;SDS011;64300;45.034;38.910;2022-12-18T17:21:54;19.55;;;9.00;;
75687;SDS011;64300;45.034;38.910;2022-12-18T17:24:20;15.35;;;6.88;;
75687;SDS011;64300;45.034;38.910;2022-12-18T17:26:47;7.88;;;4.22;;
75687;SDS011;64300;45.034;38.910;2022-12-18T17:31:40;8.07;;;3.13;;
75687;SDS011;64300;45.034;38.910;2022-12-18T17:34:06;5.82;;;3.33;;
75687;SDS011;64300;45.034;38.910;2022-12-18T17:36:34;8.27;;;3.50;;
75687;SDS011;64300;45.034;38.910;2022-12-18T17:41:27;5.25;;;2.53;;
75687;SDS011;64300;45.034;38.910;2022-12-18T17:43:55;7.15;;;3.67;;
75687;SDS011;64300;45.034;38.910;2022-12-18T17:46:26;8.18;;;3.63;;
75687;SDS011;64300;45.034;38.910;2022-12-18T17:48:54;6.75;;;3.47;;
75687;SDS011;64300;45.034;38.910;2022-12-18T17:51:20;9.00;;;3.58;;
75687;SDS011;64300;45.034;38.910;2022-12-18T17:53:47;7.85;;;3.47;;
75687;SDS011;64300;45.034;38.910;2022-12-18T17:56:14;7.65;;;4.25;;
75687;SDS011;64300;45.034;38.910;2022-12-18T17:58:41;12.85;;;6.85;;
75687;SDS011;64300;45.034;38.910;2022-12-18T18:01:08;6.53;;;3.00;;
75687;SDS011;64300;45.034;38.910;2022-12-18T18:03:36;10.35;;;3.33;;
75687;SDS011;64300;45.034;38.910;2022-12-18T18:06:02;6.22;;;3.08;;
75687;SDS011;64300;45.034;38.910;2022-12-18T18:08:28;10.93;;;6.40;;